Angra dos Reis, Brazil
Current Conditions -  °F | °C
As of 6:00 AM on Thursday 18 Dec 2014 (Local Time) from SBSC Reporting Station
Clear Clear  
Wind Chill: 68°   Ceiling: Unl
Heat Index: 68°   Visibility: 6mi
Dew Point: 64°   Wind: 9mph
Humidity: 88%   Direction: 40°NE
Pressure: 29.8"   Gusts: NA
Location:  23°S, 44.32°W
Report Text: SBSC 180800Z 04008KT CAVOK 20/18 Q1009
Loading
Personal Weather Stations






























Interactive Weather Map New forecast layout! Learn more

10-Day Weather Forecast

Advertisements
Track Severe Weather on mobile